Time,TemperatureF,DewpointF,PressureIn,WindDirection,WindDirectionDegrees,WindSpeedMPH,WindSpeedGustMPH,Humidity,HourlyPrecipIn,Conditions,Clouds,dailyrainin,SolarRadiationWatts/m^2,SoftwareType,DateUTC
2013-01-25 00:03:00,45.5,43.3,29.47,SSW,206,3.5,3.5,92,0.00,RA,FEW,0.00,0.0,WeatherDisplay:10.37,2013-01-24 23:03:00,
2013-01-25 00:08:00,45.5,43.3,29.47,SSW,203,4.6,4.6,92,0.00,RA,FEW,0.00,0.0,WeatherDisplay:10.37,2013-01-24 23:08:00,
2013-01-25 00:13:00,45.6,43.4,29.46,SSE,165,7.0,7.0,92,0.00,CLR,FEW,0.00,0.0,WeatherDisplay:10.37,2013-01-24 23:13:00,
2013-01-25 00:18:00,45.6,43.4,29.46,SSE,168,8.1,8.1,92,0.00,CLR,FEW,0.00,0.0,WeatherDisplay:10.37,2013-01-24 23:18:00,
2013-01-25 00:23:00,45.8,43.6,29.46,SE,144,8.1,8.1,92,0.00,CLR,FEW,0.00,0.0,WeatherDisplay:10.37,2013-01-24 23:23:00,
2013-01-25 00:28:00,45.8,43.6,29.46,SE,143,3.5,3.5,92,0.00,CLR,FEW,0.00,0.0,WeatherDisplay:10.37,2013-01-24 23:28:00,
2013-01-25 00:33:00,45.9,43.7,29.46,SE,143,4.6,4.6,92,0.00,CLR,FEW,0.00,0.0,WeatherDisplay:10.37,2013-01-24 23:33:00,
2013-01-25 00:38:00,45.9,43.7,29.46,SSE,164,6.9,6.9,92,0.00,CLR,FEW,0.00,0.0,WeatherDisplay:10.37,2013-01-24 23:38:00,
2013-01-25 00:43:00,46.0,43.8,29.45,SW,233,6.9,6.9,92,0.00,CLR,FEW,0.00,0.0,WeatherDisplay:10.37,2013-01-24 23:43:00,
2013-01-25 00:48:00,46.0,43.8,29.45,SSE,162,6.0,6.0,92,0.01,RA,FEW,0.01,0.0,WeatherDisplay:10.37,2013-01-24 23:48:00,
2013-01-25 00:53:00,45.9,43.4,29.45,SSE,161,7.0,7.0,91,0.02,RA,FEW,0.02,0.0,WeatherDisplay:10.37,2013-01-24 23:53:00,
2013-01-25 00:58:00,45.7,43.2,29.45,South,180,3.5,3.5,91,0.02,RA,FEW,0.02,0.0,WeatherDisplay:10.37,2013-01-24 23:58:00,
2013-01-25 01:03:00,45.6,43.1,29.45,SSE,150,6.0,6.0,91,0.02,RA,FEW,0.02,0.0,WeatherDisplay:10.37,2013-01-25 00:03:00,
2013-01-25 01:08:00,45.6,43.1,29.45,SE,144,5.8,5.8,91,0.02,,FEW,0.03,0.0,WeatherDisplay:10.37,2013-01-25 00:08:00,
2013-01-25 01:13:00,45.6,43.1,29.45,SE,144,4.6,4.6,91,0.03,RA,FEW,0.03,0.0,WeatherDisplay:10.37,2013-01-25 00:13:00,
2013-01-25 01:18:00,45.6,43.1,29.45,SSE,167,4.6,4.6,91,0.03,RA,FEW,0.03,0.0,WeatherDisplay:10.37,2013-01-25 00:18:00,
2013-01-25 01:23:00,45.5,43.0,29.45,SSE,161,5.8,5.8,91,0.03,CLR,FEW,0.03,0.0,WeatherDisplay:10.37,2013-01-25 00:23:00,
2013-01-25 01:28:00,45.5,43.0,29.45,SSE,153,5.8,5.8,91,0.03,CLR,FEW,0.03,0.0,WeatherDisplay:10.37,2013-01-25 00:28:00,
2013-01-25 01:33:00,45.5,43.0,29.45,SSE,153,4.0,4.0,91,0.03,CLR,FEW,0.03,0.0,WeatherDisplay:10.37,2013-01-25 00:33:00,
2013-01-25 01:38:00,45.5,43.0,29.44,SSE,153,5.0,5.0,91,0.04,RA,FEW,0.04,0.0,WeatherDisplay:10.37,2013-01-25 00:38:00,
2013-01-25 01:43:00,45.4,42.9,29.44,SSE,153,6.0,6.0,91,0.05,RA,FEW,0.05,0.0,WeatherDisplay:10.37,2013-01-25 00:43:00,
2013-01-25 01:48:00,45.3,42.8,29.44,SSE,154,6.9,6.9,91,0.04,RA,FEW,0.05,0.0,WeatherDisplay:10.37,2013-01-25 00:48:00,
2013-01-25 01:53:00,45.3,42.8,29.43,SSE,154,5.8,5.8,91,0.03,,FEW,0.05,0.0,WeatherDisplay:10.37,2013-01-25 00:53:00,
2013-01-25 01:58:00,45.2,42.7,29.43,SSE,154,5.0,5.0,91,0.02,CLR,FEW,0.05,0.0,WeatherDisplay:10.37,2013-01-25 00:58:00,
2013-01-25 02:03:00,45.2,42.7,29.43,SSE,153,6.0,6.0,91,0.02,CLR,FEW,0.05,0.0,WeatherDisplay:10.37,2013-01-25 01:03:00,
2013-01-25 02:08:00,45.3,42.8,29.43,SSE,151,4.6,4.6,91,0.02,CLR,FEW,0.05,0.0,WeatherDisplay:10.37,2013-01-25 01:08:00,
2013-01-25 02:13:00,45.4,42.9,29.43,SE,144,5.8,5.8,91,0.02,CLR,FEW,0.05,0.0,WeatherDisplay:10.37,2013-01-25 01:13:00,
2013-01-25 02:18:00,45.5,42.7,29.43,SE,140,6.9,6.9,90,0.02,CLR,FEW,0.05,0.0,WeatherDisplay:10.37,2013-01-25 01:18:00,
2013-01-25 02:23:00,45.6,42.8,29.43,SE,146,6.9,6.9,90,0.02,CLR,FEW,0.05,0.0,WeatherDisplay:10.37,2013-01-25 01:23:00,
2013-01-25 02:28:00,45.6,42.8,29.43,SSE,151,5.8,5.8,90,0.02,CLR,FEW,0.05,0.0,WeatherDisplay:10.37,2013-01-25 01:28:00,
2013-01-25 02:33:00,45.6,42.8,29.43,SSE,155,6.0,6.0,90,0.02,CLR,FEW,0.05,0.0,WeatherDisplay:10.37,2013-01-25 01:33:00,
2013-01-25 02:38:00,45.5,42.7,29.43,SSE,153,4.0,4.0,90,0.01,CLR,FEW,0.05,0.0,WeatherDisplay:10.37,2013-01-25 01:38:00,
2013-01-25 02:43:00,45.6,42.8,29.43,SSE,154,4.6,4.6,90,0.00,CLR,FEW,0.05,0.0,WeatherDisplay:10.37,2013-01-25 01:43:00,
2013-01-25 02:48:00,45.6,42.8,29.43,ESE,123,6.9,6.9,90,0.00,CLR,FEW,0.05,0.0,WeatherDisplay:10.37,2013-01-25 01:48:00,
2013-01-25 02:53:00,45.7,42.9,29.43,SE,124,6.9,6.9,90,0.00,CLR,FEW,0.05,0.0,WeatherDisplay:10.37,2013-01-25 01:53:00,
2013-01-25 02:58:00,45.8,43.0,29.43,SSE,153,8.1,8.1,90,0.00,CLR,FEW,0.05,0.0,WeatherDisplay:10.37,2013-01-25 01:58:00,
2013-01-25 03:03:00,46.0,43.2,29.43,SE,142,5.0,5.0,90,0.01,RA,FEW,0.06,0.0,WeatherDisplay:10.37,2013-01-25 02:03:00,
2013-01-25 03:08:00,46.1,43.0,29.43,ESE,120,9.2,9.2,89,0.01,RA,FEW,0.06,0.0,WeatherDisplay:10.37,2013-01-25 02:08:00,
2013-01-25 03:13:00,46.2,43.4,29.43,SSE,163,6.9,6.9,90,0.01,CLR,FEW,0.06,0.0,WeatherDisplay:10.37,2013-01-25 02:13:00,
2013-01-25 03:18:00,46.2,43.1,29.43,East,95,3.5,3.5,89,0.01,CLR,FEW,0.06,0.0,WeatherDisplay:10.37,2013-01-25 02:18:00,
2013-01-25 03:23:00,46.2,43.1,29.43,East,81,4.6,4.6,89,0.01,CLR,FEW,0.06,0.0,WeatherDisplay:10.37,2013-01-25 02:23:00,
2013-01-25 03:28:00,46.1,43.0,29.43,NE,55,5.8,5.8,89,0.01,CLR,FEW,0.06,0.0,WeatherDisplay:10.37,2013-01-25 02:28:00,
2013-01-25 03:33:00,45.9,42.8,29.43,ENE,59,4.6,4.6,89,0.01,CLR,FEW,0.06,0.0,WeatherDisplay:10.37,2013-01-25 02:33:00,
2013-01-25 03:38:00,45.7,42.9,29.43,ENE,62,2.3,2.3,90,0.01,CLR,FEW,0.06,0.0,WeatherDisplay:10.37,2013-01-25 02:38:00,
2013-01-25 03:43:00,45.7,42.9,29.43,ESE,113,6.9,6.9,90,0.01,CLR,FEW,0.06,0.0,WeatherDisplay:10.37,2013-01-25 02:43:00,
2013-01-25 03:48:00,45.5,42.7,29.43,ESE,113,2.3,2.3,90,0.01,CLR,FEW,0.06,0.0,WeatherDisplay:10.37,2013-01-25 02:48:00,
2013-01-25 03:53:00,45.4,42.6,29.43,ESE,111,3.5,3.5,90,0.01,CLR,FEW,0.06,0.0,WeatherDisplay:10.37,2013-01-25 02:53:00,
2013-01-25 03:58:00,45.2,42.4,29.42,ESE,107,3.5,3.5,90,0.01,CLR,FEW,0.06,0.0,WeatherDisplay:10.37,2013-01-25 02:58:00,
2013-01-25 04:03:00,45.2,42.4,29.42,East,80,4.0,4.0,90,0.00,CLR,FEW,0.06,0.0,WeatherDisplay:10.37,2013-01-25 03:03:00,
2013-01-25 04:08:00,45.1,42.3,29.42,East,95,5.0,5.0,90,0.00,CLR,FEW,0.06,0.0,WeatherDisplay:10.37,2013-01-25 03:08:00,
2013-01-25 04:13:00,45.2,42.4,29.43,SSE,154,7.0,7.0,90,0.00,CLR,FEW,0.06,0.0,WeatherDisplay:10.37,2013-01-25 03:13:00,
2013-01-25 04:18:00,45.4,42.6,29.43,ESE,123,9.2,9.2,90,0.00,CLR,FEW,0.06,0.0,WeatherDisplay:10.37,2013-01-25 03:18:00,
2013-01-25 04:23:00,45.5,42.7,29.43,SE,124,9.2,9.2,90,0.00,CLR,FEW,0.06,0.0,WeatherDisplay:10.37,2013-01-25 03:23:00,
2013-01-25 04:28:00,45.6,42.8,29.43,ESE,115,6.9,6.9,90,0.00,CLR,FEW,0.06,0.0,WeatherDisplay:10.37,2013-01-25 03:28:00,
2013-01-25 04:33:00,45.8,42.7,29.43,ESE,119,10.4,10.4,89,0.00,CLR,FEW,0.06,0.0,WeatherDisplay:10.37,2013-01-25 03:33:00,
2013-01-25 04:38:00,46.0,42.9,29.43,ESE,119,12.7,12.7,89,0.00,CLR,FEW,0.06,0.0,WeatherDisplay:10.37,2013-01-25 03:38:00,
2013-01-25 04:43:00,46.1,42.7,29.43,SE,134,9.2,9.2,88,0.00,CLR,FEW,0.06,0.0,WeatherDisplay:10.37,2013-01-25 03:43:00,
2013-01-25 04:48:00,46.3,42.9,29.43,SE,129,9.2,9.2,88,0.00,CLR,FEW,0.06,0.0,WeatherDisplay:10.37,2013-01-25 03:48:00,
2013-01-25 04:53:00,46.4,42.7,29.42,SE,142,12.7,12.7,87,0.00,CLR,FEW,0.06,0.0,WeatherDisplay:10.37,2013-01-25 03:53:00,
2013-01-25 04:58:00,46.5,42.8,29.42,SE,124,11.5,11.5,87,0.00,CLR,FEW,0.06,0.0,WeatherDisplay:10.37,2013-01-25 03:58:00,
2013-01-25 05:03:00,46.6,42.9,29.42,South,173,10.4,10.4,87,0.00,CLR,FEW,0.06,0.0,WeatherDisplay:10.37,2013-01-25 04:03:00,
2013-01-25 05:08:00,46.6,42.6,29.42,ESE,107,8.1,8.1,86,0.00,CLR,FEW,0.06,0.0,WeatherDisplay:10.37,2013-01-25 04:08:00,
2013-01-25 05:13:00,46.6,42.6,29.42,ENE,69,8.1,8.1,86,0.00,CLR,FEW,0.06,0.0,WeatherDisplay:10.37,2013-01-25 04:13:00,
2013-01-25 05:18:00,46.6,42.6,29.42,ENE,57,7.0,7.0,86,0.00,CLR,FEW,0.06,0.0,WeatherDisplay:10.37,2013-01-25 04:18:00,
2013-01-25 05:23:00,46.5,42.5,29.42,ENE,61,4.0,4.0,86,0.00,CLR,FEW,0.06,0.0,WeatherDisplay:10.37,2013-01-25 04:23:00,
2013-01-25 05:28:00,46.4,42.4,29.42,NE,52,3.5,3.5,86,0.00,CLR,FEW,0.06,0.0,WeatherDisplay:10.37,2013-01-25 04:28:00,
2013-01-25 05:33:00,46.3,42.6,29.42,NE,52,4.0,4.0,87,0.00,CLR,FEW,0.06,0.0,WeatherDisplay:10.37,2013-01-25 04:33:00,
2013-01-25 05:38:00,46.1,42.4,29.43,NE,52,3.5,3.5,87,0.00,CLR,FEW,0.06,0.0,WeatherDisplay:10.37,2013-01-25 04:38:00,
2013-01-25 05:43:00,45.9,42.2,29.43,NE,52,3.5,3.5,87,0.00,CLR,FEW,0.06,0.0,WeatherDisplay:10.37,2013-01-25 04:43:00,
2013-01-25 05:48:00,45.7,42.3,29.43,NE,52,3.5,3.5,88,0.00,CLR,FEW,0.06,0.0,WeatherDisplay:10.37,2013-01-25 04:48:00,
2013-01-25 05:53:00,45.6,42.3,29.43,NE,53,4.0,4.0,88,0.00,CLR,FEW,0.06,0.0,WeatherDisplay:10.37,2013-01-25 04:53:00,
2013-01-25 05:58:00,45.5,42.2,29.43,NE,53,3.5,3.5,88,0.00,CLR,FEW,0.06,0.0,WeatherDisplay:10.37,2013-01-25 04:58:00,
2013-01-25 06:01:00,45.5,42.2,29.43,NE,53,3.5,3.5,88,0.00,CLR,FEW,0.06,0.0,WeatherDisplay:10.37,2013-01-25 05:01:00,
2013-01-25 06:03:00,45.4,42.1,29.43,NE,53,3.5,3.5,88,0.00,CLR,FEW,0.06,0.0,WeatherDisplay:10.37,2013-01-25 05:03:00,
2013-01-25 06:04:00,45.4,42.1,29.43,NE,53,3.0,3.0,88,0.00,CLR,FEW,0.06,0.0,WeatherDisplay:10.37,2013-01-25 05:04:00,
2013-01-25 06:09:00,45.3,42.0,29.43,NE,53,3.5,3.5,88,0.00,CLR,FEW,0.06,0.0,WeatherDisplay:10.37,2013-01-25 05:09:00,
2013-01-25 06:14:00,45.3,42.0,29.43,NE,53,3.5,3.5,88,0.00,CLR,FEW,0.06,0.0,WeatherDisplay:10.37,2013-01-25 05:14:00,
2013-01-25 06:19:00,45.2,41.9,29.43,NE,53,3.5,3.5,88,0.00,CLR,FEW,0.06,0.0,WeatherDisplay:10.37,2013-01-25 05:19:00,
2013-01-25 06:24:00,45.3,42.0,29.43,SE,130,8.1,8.1,88,0.00,CLR,FEW,0.06,0.0,WeatherDisplay:10.37,2013-01-25 05:24:00,
2013-01-25 06:29:00,45.5,42.2,29.43,SE,129,5.8,5.8,88,0.00,CLR,FEW,0.06,0.0,WeatherDisplay:10.37,2013-01-25 05:29:00,
2013-01-25 06:34:00,45.7,42.1,29.43,East,96,3.5,3.5,87,0.00,CLR,FEW,0.06,0.0,WeatherDisplay:10.37,2013-01-25 05:34:00,
2013-01-25 06:39:00,45.8,42.2,29.43,East,96,2.3,0.0,87,0.00,CLR,FEW,0.06,0.0,WeatherDisplay:10.37,2013-01-25 05:39:00,
2013-01-25 06:44:00,45.8,42.2,29.43,East,96,1.2,1.2,87,0.00,CLR,FEW,0.06,0.0,WeatherDisplay:10.37,2013-01-25 05:44:00,
2013-01-25 06:49:00,45.8,42.2,29.43,East,96,2.3,2.3,87,0.00,CLR,FEW,0.06,0.0,WeatherDisplay:10.37,2013-01-25 05:49:00,
2013-01-25 06:54:00,45.6,42.0,29.43,East,96,3.5,3.5,87,0.00,CLR,FEW,0.06,0.0,WeatherDisplay:10.37,2013-01-25 05:54:00,
2013-01-25 06:59:00,45.4,42.1,29.43,East,96,3.5,3.5,88,0.00,CLR,FEW,0.06,0.0,WeatherDisplay:10.37,2013-01-25 05:59:00,
2013-01-25 07:04:00,45.3,42.0,29.43,East,96,0.0,0.0,88,0.00,OVC,FEW,0.06,0.0,WeatherDisplay:10.37,2013-01-25 06:04:00,
2013-01-25 07:09:00,45.0,41.7,29.43,East,96,1.2,1.2,88,0.00,OVC,FEW,0.06,0.0,WeatherDisplay:10.37,2013-01-25 06:09:00,
2013-01-25 07:14:00,44.8,41.5,29.43,East,96,0.0,0.0,88,0.00,OVC,FEW,0.06,0.0,WeatherDisplay:10.37,2013-01-25 06:14:00,
2013-01-25 07:19:00,44.8,41.5,29.43,East,96,1.2,0.0,88,0.00,OVC,FEW,0.06,0.0,WeatherDisplay:10.37,2013-01-25 06:19:00,
2013-01-25 07:24:00,44.7,41.4,29.43,East,96,2.3,2.3,88,0.00,OVC,FEW,0.06,0.0,WeatherDisplay:10.37,2013-01-25 06:24:00,
2013-01-25 07:29:00,44.7,41.4,29.43,East,96,2.3,2.3,88,0.00,OVC,FEW,0.06,0.0,WeatherDisplay:10.37,2013-01-25 06:29:00,
2013-01-25 07:34:00,44.7,41.1,29.43,East,96,2.3,2.3,87,0.00,OVC,FEW,0.06,0.0,WeatherDisplay:10.37,2013-01-25 06:34:00,
2013-01-25 07:39:00,44.6,41.0,29.43,East,96,3.5,3.5,87,0.00,OVC,FEW,0.06,0.0,WeatherDisplay:10.37,2013-01-25 06:39:00,
2013-01-25 07:44:00,44.7,41.1,29.43,ENE,60,4.0,4.0,87,0.00,OVC,FEW,0.06,0.0,WeatherDisplay:10.37,2013-01-25 06:44:00,
2013-01-25 07:49:00,44.8,40.9,29.43,NE,55,5.8,5.8,86,0.00,OVC,FEW,0.06,0.0,WeatherDisplay:10.37,2013-01-25 06:49:00,
2013-01-25 07:54:00,44.8,40.6,29.43,NE,56,3.5,3.5,85,0.00,OVC,FEW,0.06,0.0,WeatherDisplay:10.37,2013-01-25 06:54:00,
2013-01-25 07:59:00,45.0,40.5,29.43,ENE,57,6.9,6.9,84,0.00,OVC,FEW,0.06,0.0,WeatherDisplay:10.37,2013-01-25 06:59:00,
2013-01-25 08:04:00,45.3,40.1,29.43,ENE,75,4.6,4.6,82,0.00,OVC,FEW,0.06,0.0,WeatherDisplay:10.37,2013-01-25 07:04:00,
2013-01-25 08:09:00,45.5,40.0,29.43,ENE,64,5.8,5.8,81,0.00,OVC,FEW,0.06,0.0,WeatherDisplay:10.37,2013-01-25 07:09:00,
2013-01-25 08:14:00,45.5,39.7,29.43,NNE,30,11.5,11.5,80,0.00,OVC,FEW,0.06,0.0,WeatherDisplay:10.37,2013-01-25 07:14:00,
2013-01-25 08:19:00,45.6,39.5,29.43,NNE,17,5.0,5.0,79,0.00,OVC,FEW,0.06,0.0,WeatherDisplay:10.37,2013-01-25 07:19:00,
2013-01-25 08:24:00,45.6,39.1,29.43,ENE,64,4.0,4.0,78,0.00,OVC,FEW,0.06,0.0,WeatherDisplay:10.37,2013-01-25 07:24:00,
2013-01-25 08:29:00,45.9,39.1,29.44,East,101,4.6,4.6,77,0.00,OVC,FEW,0.06,0.0,WeatherDisplay:10.37,2013-01-25 07:29:00,
2013-01-25 08:34:00,46.1,39.0,29.44,ESE,104,4.0,4.0,76,0.00,OVC,FEW,0.06,0.0,WeatherDisplay:10.37,2013-01-25 07:34:00,
2013-01-25 08:39:00,46.1,39.0,29.44,ESE,104,2.3,2.3,76,0.00,OVC,FEW,0.06,0.0,WeatherDisplay:10.37,2013-01-25 07:39:00,
2013-01-25 08:44:00,46.2,38.7,29.44,East,91,5.8,5.8,75,0.00,OVC,FEW,0.06,0.0,WeatherDisplay:10.37,2013-01-25 07:44:00,
2013-01-25 08:49:00,46.4,38.6,29.44,East,90,4.6,4.6,74,0.00,OVC,FEW,0.06,0.0,WeatherDisplay:10.37,2013-01-25 07:49:00,
2013-01-25 08:54:00,46.5,39.0,29.44,NE,42,7.0,7.0,75,0.00,OVC,FEW,0.06,0.0,WeatherDisplay:10.37,2013-01-25 07:54:00,
2013-01-25 08:59:00,46.6,39.1,29.44,NE,55,4.6,4.6,75,0.00,OVC,FEW,0.06,0.0,WeatherDisplay:10.37,2013-01-25 07:59:00,
2013-01-25 09:04:00,46.8,39.3,29.44,NE,55,6.0,6.0,75,0.00,OVC,FEW,0.06,0.0,WeatherDisplay:10.37,2013-01-25 08:04:00,
2013-01-25 09:09:00,46.9,39.4,29.44,NE,55,4.0,4.0,75,0.00,OVC,FEW,0.06,0.0,WeatherDisplay:10.37,2013-01-25 08:09:00,
2013-01-25 09:14:00,46.9,39.0,29.44,NE,52,5.8,5.8,74,0.00,OVC,FEW,0.06,0.0,WeatherDisplay:10.37,2013-01-25 08:14:00,
2013-01-25 09:19:00,47.0,39.1,29.44,NE,53,6.9,6.9,74,0.00,OVC,FEW,0.06,0.0,WeatherDisplay:10.37,2013-01-25 08:19:00,
2013-01-25 09:24:00,47.1,38.9,29.44,NE,38,4.6,4.6,73,0.00,OVC,FEW,0.06,0.0,WeatherDisplay:10.37,2013-01-25 08:24:00,
2013-01-25 09:29:00,47.2,39.0,29.44,NE,49,6.9,6.9,73,0.00,OVC,FEW,0.06,0.0,WeatherDisplay:10.37,2013-01-25 08:29:00,
2013-01-25 09:34:00,47.4,39.2,29.45,NE,46,8.1,8.1,73,0.00,OVC,FEW,0.06,0.0,WeatherDisplay:10.37,2013-01-25 08:34:00,
2013-01-25 09:39:00,47.5,39.3,29.44,NNE,31,6.9,6.9,73,0.00,OVC,FEW,0.06,0.0,WeatherDisplay:10.37,2013-01-25 08:39:00,
2013-01-25 09:44:00,47.8,39.2,29.44,ENE,60,9.2,9.2,72,0.00,OVC,FEW,0.06,0.0,WeatherDisplay:10.37,2013-01-25 08:44:00,
2013-01-25 09:49:00,48.1,39.5,29.45,ENE,61,11.5,11.5,72,0.00,OVC,FEW,0.06,0.0,WeatherDisplay:10.37,2013-01-25 08:49:00,
2013-01-25 09:54:00,48.4,39.8,29.45,ENE,71,12.0,12.0,72,0.00,OVC,FEW,0.06,0.0,WeatherDisplay:10.37,2013-01-25 08:54:00,
2013-01-25 09:59:00,48.7,40.1,29.45,ENE,57,8.1,8.1,72,0.00,OVC,FEW,0.06,0.0,WeatherDisplay:10.37,2013-01-25 08:59:00,
2013-01-25 10:04:00,49.1,40.5,29.45,NE,51,10.4,10.4,72,0.00,OVC,FEW,0.06,0.0,WeatherDisplay:10.37,2013-01-25 09:04:00,
2013-01-25 10:09:00,49.2,40.2,29.45,NE,49,11.5,11.5,71,0.00,OVC,FEW,0.06,0.0,WeatherDisplay:10.37,2013-01-25 09:09:00,
2013-01-25 10:14:00,49.5,40.5,29.45,NE,37,11.5,11.5,71,0.00,OVC,FEW,0.06,0.0,WeatherDisplay:10.37,2013-01-25 09:14:00,
2013-01-25 10:19:00,49.7,39.9,29.46,NE,34,11.5,11.5,69,0.00,OVC,FEW,0.06,0.0,WeatherDisplay:10.37,2013-01-25 09:19:00,
2013-01-25 10:24:00,49.7,40.3,29.46,ENE,57,10.4,10.4,70,0.00,OVC,FEW,0.06,0.0,WeatherDisplay:10.37,2013-01-25 09:24:00,
2013-01-25 10:29:00,49.8,40.0,29.46,ENE,65,15.0,15.0,69,0.00,OVC,FEW,0.06,0.0,WeatherDisplay:10.37,2013-01-25 09:29:00,
2013-01-25 10:34:00,49.4,39.3,29.46,ENE,67,11.5,11.5,68,0.00,OVC,FEW,0.06,0.0,WeatherDisplay:10.37,2013-01-25 09:34:00,
2013-01-25 10:39:00,48.9,38.8,29.46,NE,46,11.5,11.5,68,0.00,OVC,FEW,0.06,0.0,WeatherDisplay:10.37,2013-01-25 09:39:00,
2013-01-25 10:44:00,48.6,38.9,29.46,NE,35,19.6,19.6,69,0.00,OVC,FEW,0.06,0.0,WeatherDisplay:10.37,2013-01-25 09:44:00,
2013-01-25 10:49:00,48.5,39.2,29.46,NE,51,5.8,5.8,70,0.00,OVC,FEW,0.06,0.0,WeatherDisplay:10.37,2013-01-25 09:49:00,
2013-01-25 10:54:00,48.6,39.3,29.46,NE,39,11.5,11.5,70,0.00,OVC,FEW,0.06,0.0,WeatherDisplay:10.37,2013-01-25 09:54:00,
2013-01-25 10:59:00,48.6,39.3,29.46,ENE,57,10.4,10.4,70,0.00,OVC,FEW,0.06,0.0,WeatherDisplay:10.37,2013-01-25 09:59:00,
2013-01-25 11:04:00,48.6,39.3,29.47,NE,35,11.5,11.5,70,0.00,OVC,FEW,0.06,0.0,WeatherDisplay:10.37,2013-01-25 10:04:00,
2013-01-25 11:09:00,48.6,38.9,29.46,ESE,107,10.4,10.4,69,0.00,OVC,FEW,0.06,0.0,WeatherDisplay:10.37,2013-01-25 10:09:00,
2013-01-25 11:14:00,48.6,39.3,29.46,NE,53,7.0,7.0,70,0.00,OVC,FEW,0.06,0.0,WeatherDisplay:10.37,2013-01-25 10:14:00,
2013-01-25 11:19:00,48.5,38.8,29.46,East,86,16.1,16.1,69,0.00,OVC,FEW,0.06,0.0,WeatherDisplay:10.37,2013-01-25 10:19:00,
2013-01-25 11:24:00,48.4,38.7,29.46,North,10,11.5,11.5,69,0.00,OVC,FEW,0.06,0.0,WeatherDisplay:10.37,2013-01-25 10:24:00,
2013-01-25 11:29:00,48.3,38.2,29.46,NE,55,11.5,11.5,68,0.00,OVC,FEW,0.06,0.0,WeatherDisplay:10.37,2013-01-25 10:29:00,
2013-01-25 11:34:00,48.4,38.3,29.46,NE,55,11.5,11.5,68,0.00,OVC,FEW,0.06,0.0,WeatherDisplay:10.37,2013-01-25 10:34:00,
2013-01-25 11:39:00,48.7,38.6,29.46,ENE,75,13.8,13.8,68,0.00,OVC,FEW,0.06,0.0,WeatherDisplay:10.37,2013-01-25 10:39:00,
2013-01-25 11:44:00,49.1,39.0,29.46,ENE,69,13.8,13.8,68,0.00,OVC,FEW,0.06,0.0,WeatherDisplay:10.37,2013-01-25 10:44:00,
2013-01-25 11:49:00,49.4,38.5,29.46,NE,44,17.3,17.3,66,0.00,OVC,FEW,0.06,0.0,WeatherDisplay:10.37,2013-01-25 10:49:00,
2013-01-25 11:54:00,49.5,39.0,29.46,NE,55,11.5,11.5,67,0.00,OVC,FEW,0.06,0.0,WeatherDisplay:10.37,2013-01-25 10:54:00,
2013-01-25 11:59:00,49.7,38.8,29.46,NE,53,11.5,11.5,66,0.00,OVC,FEW,0.06,0.0,WeatherDisplay:10.37,2013-01-25 10:59:00,
2013-01-25 12:04:00,49.8,38.5,29.46,East,87,12.7,12.7,65,0.00,OVC,FEW,0.06,0.0,WeatherDisplay:10.37,2013-01-25 11:04:00,
2013-01-25 12:09:00,49.9,38.6,29.46,ENE,72,13.8,13.8,65,0.00,OVC,FEW,0.06,0.0,WeatherDisplay:10.37,2013-01-25 11:09:00,
2013-01-25 12:14:00,50.1,39.2,29.45,NE,36,10.4,10.4,66,0.00,OVC,FEW,0.06,0.0,WeatherDisplay:10.37,2013-01-25 11:14:00,
2013-01-25 12:19:00,50.3,39.0,29.45,NE,40,8.1,8.1,65,0.00,OVC,FEW,0.06,0.0,WeatherDisplay:10.37,2013-01-25 11:19:00,
2013-01-25 12:24:00,50.2,38.5,29.45,NE,50,11.0,11.0,64,0.00,OVC,FEW,0.06,0.0,WeatherDisplay:10.37,2013-01-25 11:24:00,
2013-01-25 12:29:00,50.3,38.2,29.45,ENE,59,12.7,12.7,63,0.00,OVC,FEW,0.06,0.0,WeatherDisplay:10.37,2013-01-25 11:29:00,
2013-01-25 12:34:00,50.9,38.7,29.45,East,85,11.5,11.5,63,0.00,OVC,FEW,0.06,0.0,WeatherDisplay:10.37,2013-01-25 11:34:00,
2013-01-25 12:39:00,50.8,37.8,29.45,NNW,343,16.1,16.1,61,0.00,OVC,FEW,0.06,0.0,WeatherDisplay:10.37,2013-01-25 11:39:00,
2013-01-25 12:44:00,50.7,38.1,29.45,ENE,59,12.7,12.7,62,0.00,OVC,FEW,0.06,0.0,WeatherDisplay:10.37,2013-01-25 11:44:00,
2013-01-25 12:49:00,50.9,37.9,29.45,NE,40,11.5,11.5,61,0.00,OVC,FEW,0.06,0.0,WeatherDisplay:10.37,2013-01-25 11:49:00,
2013-01-25 12:54:00,51.2,38.6,29.45,NNE,15,9.0,9.0,62,0.00,OVC,FEW,0.06,0.0,WeatherDisplay:10.37,2013-01-25 11:54:00,
2013-01-25 12:59:00,51.3,38.3,29.45,NE,44,13.8,13.8,61,0.00,OVC,FEW,0.06,0.0,WeatherDisplay:10.37,2013-01-25 11:59:00,
2013-01-25 13:04:00,51.2,38.6,29.44,NE,54,10.4,10.4,62,0.00,OVC,FEW,0.06,0.0,WeatherDisplay:10.37,2013-01-25 12:04:00,
2013-01-25 13:09:00,51.2,38.6,29.44,ENE,67,6.9,6.9,62,0.00,OVC,FEW,0.06,0.0,WeatherDisplay:10.37,2013-01-25 12:09:00,
2013-01-25 13:14:00,51.2,38.6,29.45,NE,46,16.0,16.0,62,0.00,OVC,FEW,0.06,0.0,WeatherDisplay:10.37,2013-01-25 12:14:00,
2013-01-25 13:19:00,51.0,38.0,29.45,NE,47,12.7,12.7,61,0.00,OVC,FEW,0.06,0.0,WeatherDisplay:10.37,2013-01-25 12:19:00,
2013-01-25 13:24:00,50.9,38.3,29.44,ENE,57,10.4,10.4,62,0.00,OVC,FEW,0.06,0.0,WeatherDisplay:10.37,2013-01-25 12:24:00,
2013-01-25 13:29:00,51.0,38.4,29.45,ENE,73,10.0,10.0,62,0.00,OVC,FEW,0.06,0.0,WeatherDisplay:10.37,2013-01-25 12:29:00,
2013-01-25 13:34:00,51.1,38.9,29.45,NE,55,11.0,11.0,63,0.00,OVC,FEW,0.06,0.0,WeatherDisplay:10.37,2013-01-25 12:34:00,
2013-01-25 13:39:00,51.2,38.6,29.45,NE,39,13.8,13.8,62,0.00,OVC,FEW,0.06,0.0,WeatherDisplay:10.37,2013-01-25 12:39:00,
2013-01-25 13:44:00,51.1,38.1,29.45,ENE,65,15.0,15.0,61,0.00,OVC,FEW,0.06,0.0,WeatherDisplay:10.37,2013-01-25 12:44:00,
2013-01-25 13:49:00,50.9,37.9,29.45,NNE,28,11.5,11.5,61,0.00,OVC,FEW,0.06,0.0,WeatherDisplay:10.37,2013-01-25 12:49:00,
2013-01-25 13:54:00,50.5,37.5,29.45,NNE,22,17.3,17.3,61,0.00,OVC,FEW,0.06,0.0,WeatherDisplay:10.37,2013-01-25 12:54:00,
2013-01-25 13:59:00,50.4,38.3,29.45,NE,40,10.4,10.4,63,0.00,OVC,FEW,0.06,0.0,WeatherDisplay:10.37,2013-01-25 12:59:00,
2013-01-25 14:04:00,50.4,37.9,29.45,NNE,30,11.5,11.5,62,0.00,OVC,FEW,0.06,0.0,WeatherDisplay:10.37,2013-01-25 13:04:00,
2013-01-25 14:09:00,50.2,37.7,29.45,NE,44,19.6,19.6,62,0.00,OVC,FEW,0.06,0.0,WeatherDisplay:10.37,2013-01-25 13:09:00,
2013-01-25 14:14:00,49.9,38.2,29.45,NNE,32,19.6,19.6,64,0.00,OVC,FEW,0.06,0.0,WeatherDisplay:10.37,2013-01-25 13:14:00,
2013-01-25 14:19:00,49.6,38.3,29.45,NE,54,17.3,17.3,65,0.00,OVC,FEW,0.06,0.0,WeatherDisplay:10.37,2013-01-25 13:19:00,
2013-01-25 14:24:00,49.5,38.6,29.46,NE,42,19.6,19.6,66,0.00,OVC,FEW,0.06,0.0,WeatherDisplay:10.37,2013-01-25 13:24:00,
2013-01-25 14:29:00,49.4,38.9,29.46,ENE,67,16.1,16.1,67,0.00,OVC,FEW,0.06,0.0,WeatherDisplay:10.37,2013-01-25 13:29:00,
2013-01-25 14:34:00,49.4,38.9,29.46,NE,42,16.0,16.0,67,0.00,OVC,FEW,0.06,0.0,WeatherDisplay:10.37,2013-01-25 13:34:00,
2013-01-25 14:39:00,49.4,39.3,29.46,NE,53,16.1,16.1,68,0.00,OVC,FEW,0.06,0.0,WeatherDisplay:10.37,2013-01-25 13:39:00,
2013-01-25 14:44:00,49.3,39.2,29.46,NE,39,13.8,13.8,68,0.00,OVC,FEW,0.06,0.0,WeatherDisplay:10.37,2013-01-25 13:44:00,
2013-01-25 14:49:00,49.3,39.2,29.46,NE,52,11.5,11.5,68,0.00,OVC,FEW,0.06,0.0,WeatherDisplay:10.37,2013-01-25 13:49:00,
2013-01-25 14:54:00,49.1,38.6,29.46,NE,44,11.5,11.5,67,0.00,OVC,FEW,0.06,0.0,WeatherDisplay:10.37,2013-01-25 13:54:00,
2013-01-25 14:59:00,49.1,38.6,29.47,NE,40,12.7,12.7,67,0.00,OVC,FEW,0.06,0.0,WeatherDisplay:10.37,2013-01-25 13:59:00,
2013-01-25 15:04:00,49.1,38.6,29.47,ENE,59,12.7,12.7,67,0.00,OVC,FEW,0.06,0.0,WeatherDisplay:10.37,2013-01-25 14:04:00,
2013-01-25 15:09:00,49.1,38.6,29.47,NE,46,11.5,11.5,67,0.00,OVC,FEW,0.06,0.0,WeatherDisplay:10.37,2013-01-25 14:09:00,
2013-01-25 15:14:00,49.0,38.5,29.47,NE,55,13.8,13.8,67,0.00,OVC,FEW,0.06,0.0,WeatherDisplay:10.37,2013-01-25 14:14:00,
2013-01-25 15:19:00,49.0,38.1,29.47,NE,44,11.5,11.5,66,0.00,OVC,FEW,0.06,0.0,WeatherDisplay:10.37,2013-01-25 14:19:00,
2013-01-25 15:24:00,48.9,38.0,29.47,NE,47,12.7,12.7,66,0.00,OVC,FEW,0.06,0.0,WeatherDisplay:10.37,2013-01-25 14:24:00,
2013-01-25 15:29:00,48.9,38.0,29.47,ENE,63,12.7,12.7,66,0.00,OVC,FEW,0.06,0.0,WeatherDisplay:10.37,2013-01-25 14:29:00,
2013-01-25 15:34:00,48.8,37.9,29.47,NE,50,8.1,8.1,66,0.00,OVC,FEW,0.06,0.0,WeatherDisplay:10.37,2013-01-25 14:34:00,
2013-01-25 15:39:00,48.8,37.9,29.47,NE,47,15.0,15.0,66,0.00,OVC,FEW,0.06,0.0,WeatherDisplay:10.37,2013-01-25 14:39:00,
2013-01-25 15:44:00,48.8,37.9,29.47,NE,36,10.4,10.4,66,0.00,OVC,FEW,0.06,0.0,WeatherDisplay:10.37,2013-01-25 14:44:00,
2013-01-25 15:49:00,48.8,37.2,29.47,NE,40,15.0,15.0,64,0.00,OVC,FEW,0.06,0.0,WeatherDisplay:10.37,2013-01-25 14:49:00,
2013-01-25 15:54:00,48.8,36.8,29.48,ENE,57,12.7,12.7,63,0.00,OVC,FEW,0.06,0.0,WeatherDisplay:10.37,2013-01-25 14:54:00,
2013-01-25 15:59:00,48.8,36.8,29.48,NE,42,12.7,12.7,63,0.00,OVC,FEW,0.06,0.0,WeatherDisplay:10.37,2013-01-25 14:59:00,
2013-01-25 16:04:00,48.7,36.3,29.48,NE,48,15.0,15.0,62,0.00,OVC,FEW,0.06,0.0,WeatherDisplay:10.37,2013-01-25 15:04:00,
2013-01-25 16:09:00,48.7,36.3,29.48,ENE,73,11.5,11.5,62,0.00,OVC,FEW,0.06,0.0,WeatherDisplay:10.37,2013-01-25 15:09:00,
2013-01-25 16:14:00,48.7,35.8,29.49,ENE,59,16.1,16.1,61,0.00,OVC,FEW,0.06,0.0,WeatherDisplay:10.37,2013-01-25 15:14:00,
2013-01-25 16:19:00,48.8,36.4,29.49,ENE,59,10.4,10.4,62,0.00,OVC,FEW,0.06,0.0,WeatherDisplay:10.37,2013-01-25 15:19:00,
2013-01-25 16:24:00,48.6,36.6,29.49,ENE,59,11.5,11.5,63,0.00,OVC,FEW,0.06,0.0,WeatherDisplay:10.37,2013-01-25 15:24:00,
2013-01-25 16:29:00,48.4,36.8,29.50,ENE,59,10.4,10.4,64,0.00,OVC,FEW,0.06,0.0,WeatherDisplay:10.37,2013-01-25 15:29:00,
2013-01-25 16:34:00,48.2,37.0,29.50,NNE,20,7.0,7.0,65,0.00,OVC,FEW,0.06,0.0,WeatherDisplay:10.37,2013-01-25 15:34:00,
2013-01-25 16:39:00,48.1,36.5,29.50,NE,45,11.5,11.5,64,0.00,OVC,FEW,0.06,0.0,WeatherDisplay:10.37,2013-01-25 15:39:00,
2013-01-25 16:44:00,48.1,36.9,29.50,East,82,12.7,12.7,65,0.00,OVC,FEW,0.06,0.0,WeatherDisplay:10.37,2013-01-25 15:44:00,
2013-01-25 16:49:00,48.0,36.8,29.50,NE,40,11.5,11.5,65,0.00,OVC,FEW,0.06,0.0,WeatherDisplay:10.37,2013-01-25 15:49:00,
2013-01-25 16:54:00,48.1,36.9,29.50,NE,53,19.6,19.6,65,0.00,OVC,FEW,0.06,0.0,WeatherDisplay:10.37,2013-01-25 15:54:00,
2013-01-25 16:59:00,48.1,36.9,29.50,NNE,33,14.0,14.0,65,0.00,OVC,FEW,0.06,0.0,WeatherDisplay:10.37,2013-01-25 15:59:00,
2013-01-25 17:05:00,48.1,36.9,29.50,NE,44,10.4,10.4,65,0.00,OVC,FEW,0.06,0.0,WeatherDisplay:10.37,2013-01-25 16:05:00,
2013-01-25 17:10:00,48.0,37.2,29.51,NE,42,12.0,12.0,66,0.00,OVC,FEW,0.06,0.0,WeatherDisplay:10.37,2013-01-25 16:10:00,
2013-01-25 17:15:00,47.9,37.1,29.51,NE,48,11.5,11.5,66,0.00,OVC,FEW,0.06,0.0,WeatherDisplay:10.37,2013-01-25 16:15:00,
2013-01-25 17:20:00,47.9,37.1,29.51,NE,43,17.3,17.3,66,0.00,OVC,FEW,0.06,0.0,WeatherDisplay:10.37,2013-01-25 16:20:00,
2013-01-25 17:25:00,47.8,37.4,29.51,NNE,26,10.4,10.4,67,0.00,OVC,FEW,0.06,0.0,WeatherDisplay:10.37,2013-01-25 16:25:00,
2013-01-25 17:30:00,47.6,36.8,29.51,NE,39,11.5,11.5,66,0.00,OVC,FEW,0.06,0.0,WeatherDisplay:10.37,2013-01-25 16:30:00,
2013-01-25 17:35:00,47.5,36.7,29.52,NE,36,18.4,18.4,66,0.00,OVC,FEW,0.06,0.0,WeatherDisplay:10.37,2013-01-25 16:35:00,
2013-01-25 17:40:00,47.5,37.1,29.52,NNE,20,15.0,15.0,67,0.00,OVC,FEW,0.06,0.0,WeatherDisplay:10.37,2013-01-25 16:40:00,
2013-01-25 17:45:00,47.5,37.1,29.52,NE,53,13.8,13.8,67,0.00,CLR,FEW,0.06,0.0,WeatherDisplay:10.37,2013-01-25 16:45:00,
2013-01-25 17:50:00,47.3,36.9,29.52,NNE,27,13.8,13.8,67,0.00,CLR,FEW,0.06,0.0,WeatherDisplay:10.37,2013-01-25 16:50:00,
2013-01-25 17:55:00,47.2,37.2,29.52,NNE,17,15.0,15.0,68,0.00,CLR,FEW,0.06,0.0,WeatherDisplay:10.37,2013-01-25 16:55:00,
2013-01-25 18:00:00,47.1,37.1,29.52,ENE,65,11.5,11.5,68,0.00,CLR,FEW,0.06,0.0,WeatherDisplay:10.37,2013-01-25 17:00:00,
2013-01-25 18:05:00,47.1,37.1,29.52,NE,37,13.8,13.8,68,0.00,CLR,FEW,0.06,0.0,WeatherDisplay:10.37,2013-01-25 17:05:00,
2013-01-25 18:10:00,47.1,37.1,29.52,NE,46,15.0,15.0,68,0.00,CLR,FEW,0.06,0.0,WeatherDisplay:10.37,2013-01-25 17:10:00,
2013-01-25 18:15:00,47.1,37.1,29.53,NNE,20,16.1,16.1,68,0.00,CLR,FEW,0.06,0.0,WeatherDisplay:10.37,2013-01-25 17:15:00,
2013-01-25 18:20:00,47.0,37.4,29.53,ENE,71,13.8,13.8,69,0.00,CLR,FEW,0.06,0.0,WeatherDisplay:10.37,2013-01-25 17:20:00,
2013-01-25 18:25:00,47.0,37.4,29.53,NE,54,13.8,13.8,69,0.00,CLR,FEW,0.06,0.0,WeatherDisplay:10.37,2013-01-25 17:25:00,
2013-01-25 18:30:00,46.9,37.3,29.54,NNE,24,10.4,10.4,69,0.00,CLR,FEW,0.06,0.0,WeatherDisplay:10.37,2013-01-25 17:30:00,
2013-01-25 18:35:00,46.9,37.3,29.54,NE,38,12.7,12.7,69,0.00,CLR,FEW,0.06,0.0,WeatherDisplay:10.37,2013-01-25 17:35:00,
2013-01-25 18:40:00,46.8,37.2,29.54,NE,47,11.5,11.5,69,0.00,CLR,FEW,0.06,0.0,WeatherDisplay:10.37,2013-01-25 17:40:00,
2013-01-25 18:45:00,46.8,37.5,29.54,NE,44,8.1,8.1,70,0.00,CLR,FEW,0.06,0.0,WeatherDisplay:10.37,2013-01-25 17:45:00,
2013-01-25 18:50:00,46.8,37.5,29.54,NE,49,15.0,15.0,70,0.00,CLR,FEW,0.06,0.0,WeatherDisplay:10.37,2013-01-25 17:50:00,
2013-01-25 18:55:00,46.6,37.3,29.54,NNE,29,15.0,15.0,70,0.00,CLR,FEW,0.06,0.0,WeatherDisplay:10.37,2013-01-25 17:55:00,
2013-01-25 19:00:00,46.6,37.7,29.55,NE,35,13.8,13.8,71,0.00,CLR,FEW,0.06,0.0,WeatherDisplay:10.37,2013-01-25 18:00:00,
2013-01-25 19:05:00,46.5,37.6,29.55,ENE,57,15.0,15.0,71,0.00,CLR,FEW,0.06,0.0,WeatherDisplay:10.37,2013-01-25 18:05:00,
2013-01-25 19:10:00,46.5,38.0,29.55,ENE,69,15.0,15.0,72,0.00,CLR,FEW,0.06,0.0,WeatherDisplay:10.37,2013-01-25 18:10:00,
2013-01-25 19:15:00,46.4,37.9,29.55,ENE,59,20.7,20.7,72,0.00,CLR,FEW,0.06,0.0,WeatherDisplay:10.37,2013-01-25 18:15:00,
2013-01-25 19:20:00,46.2,37.7,29.55,ENE,74,19.6,19.6,72,0.00,CLR,FEW,0.06,0.0,WeatherDisplay:10.37,2013-01-25 18:20:00,
2013-01-25 19:25:00,46.2,38.0,29.55,NE,45,19.6,19.6,73,0.00,CLR,FEW,0.06,0.0,WeatherDisplay:10.37,2013-01-25 18:25:00,
2013-01-25 19:30:00,46.1,37.9,29.55,ENE,67,16.1,16.1,73,0.00,CLR,FEW,0.06,0.0,WeatherDisplay:10.37,2013-01-25 18:30:00,
2013-01-25 19:35:00,46.0,37.5,29.56,NE,43,15.0,15.0,72,0.00,CLR,FEW,0.06,0.0,WeatherDisplay:10.37,2013-01-25 18:35:00,
2013-01-25 19:40:00,46.1,38.3,29.56,ENE,61,11.5,11.5,74,0.00,CLR,FEW,0.06,0.0,WeatherDisplay:10.37,2013-01-25 18:40:00,
2013-01-25 19:45:00,46.0,38.2,29.56,ENE,62,8.1,8.1,74,0.00,CLR,FEW,0.06,0.0,WeatherDisplay:10.37,2013-01-25 18:45:00,
2013-01-25 19:50:00,45.9,38.4,29.56,NNE,33,12.7,12.7,75,0.00,CLR,FEW,0.06,0.0,WeatherDisplay:10.37,2013-01-25 18:50:00,
2013-01-25 19:56:00,45.8,38.0,29.56,ENE,72,11.5,11.5,74,0.00,CLR,FEW,0.06,0.0,WeatherDisplay:10.37,2013-01-25 18:56:00,
2013-01-25 20:01:00,45.8,38.0,29.56,North,9,17.0,17.0,74,0.00,CLR,FEW,0.06,0.0,WeatherDisplay:10.37,2013-01-25 19:01:00,
2013-01-25 20:06:00,46.0,38.2,29.56,NNE,33,17.3,17.3,74,0.00,CLR,FEW,0.06,0.0,WeatherDisplay:10.37,2013-01-25 19:06:00,
2013-01-25 20:11:00,46.1,38.3,29.56,NNE,18,16.1,16.1,74,0.00,CLR,FEW,0.06,0.0,WeatherDisplay:10.37,2013-01-25 19:11:00,
2013-01-25 20:16:00,45.9,38.5,29.56,NNE,17,15.0,15.0,75,0.00,CLR,FEW,0.06,0.0,WeatherDisplay:10.37,2013-01-25 19:16:00,
2013-01-25 20:21:00,45.9,38.7,29.56,ENE,71,18.4,18.4,76,0.00,CLR,FEW,0.06,0.0,WeatherDisplay:10.37,2013-01-25 19:21:00,
2013-01-25 20:26:00,45.9,38.4,29.56,NE,56,18.4,18.4,75,0.00,CLR,FEW,0.06,0.0,WeatherDisplay:10.37,2013-01-25 19:26:00,
2013-01-25 20:31:00,46.2,38.4,29.56,NE,38,15.0,15.0,74,0.00,CLR,FEW,0.06,0.0,WeatherDisplay:10.37,2013-01-25 19:31:00,
2013-01-25 20:36:00,46.2,38.0,29.57,NE,42,18.4,18.4,73,0.00,CLR,FEW,0.06,0.0,WeatherDisplay:10.37,2013-01-25 19:36:00,
2013-01-25 20:41:00,46.4,37.9,29.57,NE,54,18.4,18.4,72,0.00,CLR,FEW,0.06,0.0,WeatherDisplay:10.37,2013-01-25 19:41:00,
2013-01-25 20:46:00,46.4,37.5,29.57,East,86,12.0,12.0,71,0.00,CLR,FEW,0.06,0.0,WeatherDisplay:10.37,2013-01-25 19:46:00,
2013-01-25 20:51:00,46.4,37.5,29.57,NNE,29,19.6,19.6,71,0.00,CLR,FEW,0.06,0.0,WeatherDisplay:10.37,2013-01-25 19:51:00,
2013-01-25 20:56:00,46.4,37.9,29.57,NNE,13,17.0,17.0,72,0.00,CLR,FEW,0.06,0.0,WeatherDisplay:10.37,2013-01-25 19:56:00,
2013-01-25 21:01:00,46.3,37.4,29.58,NE,44,17.3,17.3,71,0.00,CLR,FEW,0.06,0.0,WeatherDisplay:10.37,2013-01-25 20:01:00,
2013-01-25 21:06:00,46.1,37.6,29.57,NNE,27,11.5,11.5,72,0.00,CLR,FEW,0.06,0.0,WeatherDisplay:10.37,2013-01-25 20:06:00,
2013-01-25 21:11:00,46.0,37.5,29.57,NE,39,10.0,22.0,72,0.00,CLR,FEW,0.06,0.0,WeatherDisplay:10.37,2013-01-25 20:11:00,
2013-01-25 21:16:00,46.0,37.1,29.57,NE,45,18.4,18.4,71,0.00,CLR,FEW,0.06,0.0,WeatherDisplay:10.37,2013-01-25 20:16:00,
2013-01-25 21:21:00,46.1,37.2,29.58,NE,52,10.0,18.0,71,0.00,CLR,FEW,0.06,0.0,WeatherDisplay:10.37,2013-01-25 20:21:00,
2013-01-25 21:26:00,46.1,37.2,29.58,NE,38,17.0,17.0,71,0.00,CLR,FEW,0.06,0.0,WeatherDisplay:10.37,2013-01-25 20:26:00,
2013-01-25 21:31:00,46.1,37.2,29.58,NE,47,8.0,17.0,71,0.00,CLR,FEW,0.06,0.0,WeatherDisplay:10.37,2013-01-25 20:31:00,
2013-01-25 21:36:00,46.2,37.3,29.58,NE,47,17.3,17.3,71,0.00,CLR,FEW,0.06,0.0,WeatherDisplay:10.37,2013-01-25 20:36:00,
2013-01-25 21:41:00,46.2,37.3,29.58,NNE,28,10.4,10.4,71,0.00,CLR,FEW,0.06,0.0,WeatherDisplay:10.37,2013-01-25 20:41:00,
2013-01-25 21:46:00,46.3,37.4,29.58,ENE,73,21.9,21.9,71,0.00,CLR,FEW,0.06,0.0,WeatherDisplay:10.37,2013-01-25 20:46:00,
2013-01-25 21:51:00,46.4,37.5,29.59,NE,41,17.3,17.3,71,0.00,CLR,FEW,0.06,0.0,WeatherDisplay:10.37,2013-01-25 20:51:00,
2013-01-25 21:56:00,46.3,37.4,29.59,NE,41,15.0,15.0,71,0.00,CLR,FEW,0.06,0.0,WeatherDisplay:10.37,2013-01-25 20:56:00,
2013-01-25 22:01:00,46.2,37.7,29.59,NNE,32,17.3,17.3,72,0.00,CLR,FEW,0.06,0.0,WeatherDisplay:10.37,2013-01-25 21:01:00,
2013-01-25 22:06:00,46.1,37.2,29.59,NE,53,17.3,17.3,71,0.00,CLR,FEW,0.06,0.0,WeatherDisplay:10.37,2013-01-25 21:06:00,
2013-01-25 22:11:00,46.0,37.1,29.59,NE,45,13.8,13.8,71,0.00,CLR,FEW,0.06,0.0,WeatherDisplay:10.37,2013-01-25 21:11:00,
2013-01-25 22:16:00,46.0,37.1,29.59,NE,51,16.1,16.1,71,0.00,CLR,FEW,0.06,0.0,WeatherDisplay:10.37,2013-01-25 21:16:00,
2013-01-25 22:21:00,46.0,37.1,29.59,NNE,24,16.1,16.1,71,0.00,CLR,FEW,0.06,0.0,WeatherDisplay:10.37,2013-01-25 21:21:00,
2013-01-25 22:26:00,45.9,37.0,29.59,NE,52,11.5,11.5,71,0.00,CLR,FEW,0.06,0.0,WeatherDisplay:10.37,2013-01-25 21:26:00,
2013-01-25 22:31:00,45.7,36.8,29.59,NNE,33,16.1,16.1,71,0.00,CLR,FEW,0.06,0.0,WeatherDisplay:10.37,2013-01-25 21:31:00,
2013-01-25 22:36:00,45.7,37.5,29.59,North,5,13.8,13.8,73,0.00,CLR,FEW,0.06,0.0,WeatherDisplay:10.37,2013-01-25 21:36:00,
2013-01-25 22:41:00,45.6,37.4,29.59,ENE,61,16.1,16.1,73,0.00,CLR,FEW,0.06,0.0,WeatherDisplay:10.37,2013-01-25 21:41:00,
2013-01-25 22:46:00,45.5,37.7,29.59,NNE,28,18.0,18.0,74,0.00,CLR,FEW,0.06,0.0,WeatherDisplay:10.37,2013-01-25 21:46:00,
2013-01-25 22:51:00,45.3,37.5,29.59,NE,53,16.0,16.0,74,0.00,CLR,FEW,0.06,0.0,WeatherDisplay:10.37,2013-01-25 21:51:00,
2013-01-25 22:56:00,45.3,37.2,29.59,ENE,57,12.7,12.7,73,0.00,CLR,FEW,0.06,0.0,WeatherDisplay:10.37,2013-01-25 21:56:00,
2013-01-25 23:01:00,45.3,37.5,29.59,NE,44,11.5,11.5,74,0.00,CLR,FEW,0.06,0.0,WeatherDisplay:10.37,2013-01-25 22:01:00,
2013-01-25 23:06:00,45.5,37.3,29.59,NNE,27,16.1,16.1,73,0.00,CLR,FEW,0.06,0.0,WeatherDisplay:10.37,2013-01-25 22:06:00,
2013-01-25 23:11:00,45.6,37.1,29.60,NNE,17,11.5,11.5,72,0.00,CLR,FEW,0.06,0.0,WeatherDisplay:10.37,2013-01-25 22:11:00,
2013-01-25 23:16:00,45.7,36.8,29.60,North,11,13.8,13.8,71,0.00,CLR,FEW,0.06,0.0,WeatherDisplay:10.37,2013-01-25 22:16:00,
2013-01-25 23:21:00,45.6,36.7,29.60,North,5,11.5,11.5,71,0.00,CLR,FEW,0.06,0.0,WeatherDisplay:10.37,2013-01-25 22:21:00,
2013-01-25 23:26:00,45.5,37.3,29.60,ENE,69,15.0,15.0,73,0.00,CLR,FEW,0.06,0.0,WeatherDisplay:10.37,2013-01-25 22:26:00,
2013-01-25 23:31:00,45.4,37.2,29.60,NE,46,10.4,10.4,73,0.00,CLR,FEW,0.06,0.0,WeatherDisplay:10.37,2013-01-25 22:31:00,
2013-01-25 23:36:00,45.3,36.8,29.60,ENE,73,13.8,13.8,72,0.00,CLR,FEW,0.06,0.0,WeatherDisplay:10.37,2013-01-25 22:36:00,
2013-01-25 23:41:00,45.4,36.9,29.60,NE,38,16.1,16.1,72,0.00,CLR,FEW,0.06,0.0,WeatherDisplay:10.37,2013-01-25 22:41:00,
2013-01-25 23:46:00,45.5,37.0,29.60,NE,43,11.5,11.5,72,0.00,CLR,FEW,0.06,0.0,WeatherDisplay:10.37,2013-01-25 22:46:00,
2013-01-25 23:51:00,45.5,37.0,29.60,NNE,32,11.5,11.5,72,0.00,CLR,FEW,0.06,0.0,WeatherDisplay:10.37,2013-01-25 22:51:00,
2013-01-25 23:56:00,45.5,36.6,29.60,NNE,14,16.1,16.1,71,0.00,CLR,FEW,0.06,0.0,WeatherDisplay:10.37,2013-01-25 22:56:00,